Time;durP1;ratioP1;P1;durP2;ratioP2;P2;SDS_P1;SDS_P2;PMS_P1;PMS_P2;Temp;Humidity;BMP_temperature;BMP_pressure;BME280_temperature;BME280_humidity;BME280_pressure;Samples;Min_cycle;Max_cycle;Signal;HPM_P1;HPM_P2
2022/02/20 00:01:30;;;;;;;6.00;2.00;;;;;;;4.94;74.21;97826.53;4853442;29;20036;-76
2022/02/20 00:03:56;;;;;;;2.95;1.80;;;;;;;4.99;74.22;97836.38;4866231;29;20041;-76
2022/02/20 00:06:21;;;;;;;2.33;1.83;;;;;;;4.98;74.56;97821.56;4852949;29;20048;-76
2022/02/20 00:08:46;;;;;;;3.75;1.85;;;;;;;4.94;75.09;97807.19;4860767;29;20066;-75
2022/02/20 00:11:12;;;;;;;3.30;1.63;;;;;;;4.92;74.91;97809.28;4858689;29;20487;-75
2022/02/20 00:13:37;;;;;;;3.20;1.40;;;;;;;4.97;74.46;97815.47;4859788;29;20044;-75
2022/02/20 00:16:03;;;;;;;5.18;1.98;;;;;;;4.97;74.92;97812.84;4852046;29;20065;-77
2022/02/20 00:18:28;;;;;;;7.43;2.13;;;;;;;4.90;75.25;97795.50;4846848;29;20064;-76
2022/02/20 00:20:54;;;;;;;2.45;1.55;;;;;;;4.94;75.05;97784.22;4851817;29;20026;-77
2022/02/20 00:23:19;;;;;;;7.85;1.73;;;;;;;4.84;75.20;97768.19;4853552;29;20494;-77
2022/02/20 00:25:46;;;;;;;4.93;1.77;;;;;;;4.89;75.17;97793.91;4865031;29;20081;-76
2022/02/20 00:28:13;;;;;;;2.83;1.98;;;;;;;4.91;75.18;97800.56;4857861;29;20044;-76
2022/02/20 00:30:38;;;;;;;7.38;1.70;;;;;;;4.87;75.27;97778.28;4859446;29;20030;-76
2022/02/20 00:33:04;;;;;;;6.57;1.50;;;;;;;4.86;74.92;97789.91;4846997;29;20036;-76
2022/02/20 00:35:33;;;;;;;4.25;1.60;;;;;;;4.91;75.60;97786.53;4859471;29;20097;-76
2022/02/20 00:38:00;;;;;;;3.22;1.52;;;;;;;4.90;75.26;97808.72;4852911;29;20045;-75
2022/02/20 00:40:25;;;;;;;4.10;1.52;;;;;;;4.87;75.59;97815.28;4857700;29;20044;-76
2022/02/20 00:42:51;;;;;;;3.80;1.73;;;;;;;4.89;75.47;97836.22;4849427;29;20041;-76
2022/02/20 00:45:16;;;;;;;4.20;1.80;;;;;;;4.87;75.96;97840.94;4858973;29;20029;-76
2022/02/20 00:47:42;;;;;;;7.95;2.42;;;;;;;4.89;75.81;97844.16;4864171;29;20134;-76
2022/02/20 00:50:08;;;;;;;3.83;1.67;;;;;;;4.86;75.88;97837.47;4844897;29;20487;-77
2022/02/20 00:52:33;;;;;;;5.03;2.00;;;;;;;4.89;75.53;97837.00;4856241;29;20041;-77
2022/02/20 00:54:59;;;;;;;5.03;2.17;;;;;;;4.89;75.68;97837.00;4853876;29;20048;-78
2022/02/20 00:57:25;;;;;;;4.15;1.42;;;;;;;4.90;76.10;97827.22;4841065;29;20033;-77
2022/02/20 00:59:52;;;;;;;6.38;1.95;;;;;;;4.93;75.51;97829.41;4852777;29;20552;-77
2022/02/20 01:02:18;;;;;;;6.75;1.92;;;;;;;4.93;75.70;97832.84;4843697;29;20046;-76
2022/02/20 01:04:43;;;;;;;3.65;1.60;;;;;;;4.95;76.04;97835.25;4852442;29;20106;-75
2022/02/20 01:07:08;;;;;;;2.63;1.58;;;;;;;4.90;75.98;97825.41;4859087;29;20438;-75
2022/02/20 01:09:33;;;;;;;6.03;1.83;;;;;;;4.90;76.41;97846.53;4831558;29;20065;-76
2022/02/20 01:11:59;;;;;;;3.20;1.50;;;;;;;4.93;75.58;97847.91;4852547;29;20029;-76
2022/02/20 01:14:24;;;;;;;4.45;1.58;;;;;;;4.93;75.96;97840.78;4851848;29;20030;-76
2022/02/20 01:16:49;;;;;;;7.47;1.70;;;;;;;4.89;76.07;97830.94;4850982;29;20112;-77
2022/02/20 01:19:15;;;;;;;4.10;1.67;;;;;;;4.96;76.65;97836.84;4848754;29;20036;-77
2022/02/20 01:21:40;;;;;;;4.47;1.58;;;;;;;4.98;76.12;97837.44;4849152;29;20228;-75
2022/02/20 01:24:06;;;;;;;3.38;1.88;;;;;;;4.85;76.02;97803.38;4849678;29;20041;-76
2022/02/20 01:26:31;;;;;;;5.85;1.88;;;;;;;4.96;76.35;97813.06;4858075;29;20037;-75
2022/02/20 01:28:56;;;;;;;3.20;1.85;;;;;;;5.00;76.53;97816.84;4856721;29;20041;-76
2022/02/20 01:31:22;;;;;;;4.93;1.85;;;;;;;4.98;76.66;97814.41;4849486;29;20041;-75
2022/02/20 01:33:47;;;;;;;4.97;1.80;;;;;;;4.99;76.40;97812.59;4848634;29;20033;-76
2022/02/20 01:36:13;;;;;;;3.67;1.90;;;;;;;4.94;77.05;97813.28;4851886;29;20074;-75
2022/02/20 01:38:38;;;;;;;2.60;1.48;;;;;;;4.95;76.96;97814.91;4843176;29;20077;-77
2022/02/20 01:41:04;;;;;;;5.38;1.63;;;;;;;5.01;77.18;97819.25;4849610;29;20038;-76
2022/02/20 01:43:29;;;;;;;4.03;1.80;;;;;;;5.00;76.62;97833.50;4853393;29;20049;-76
2022/02/20 01:45:55;;;;;;;2.47;1.92;;;;;;;4.98;76.89;97813.66;4852051;29;20511;-75
2022/02/20 01:48:20;;;;;;;5.60;1.75;;;;;;;5.00;76.80;97814.97;4846412;29;20182;-76
2022/02/20 01:50:46;;;;;;;2.30;1.58;;;;;;;5.00;76.83;97812.34;4849075;29;20369;-76
2022/02/20 01:53:11;;;;;;;5.00;1.40;;;;;;;5.01;77.00;97826.38;4863819;29;20065;-76
2022/02/20 01:55:37;;;;;;;2.13;1.27;;;;;;;4.99;77.50;97815.22;4847778;29;20057;-76
2022/02/20 01:58:02;;;;;;;3.90;1.50;;;;;;;4.98;77.73;97824.22;4851608;29;20487;-75
2022/02/20 02:00:29;;;;;;;5.85;1.65;;;;;;;5.00;77.33;97828.19;4848844;29;20112;-75
2022/02/20 02:02:55;;;;;;;1.80;1.23;;;;;;;4.99;77.53;97831.91;4847875;29;20037;-77
2022/02/20 02:05:20;;;;;;;2.08;1.52;;;;;;;5.00;77.18;97827.44;4847473;29;20594;-76
2022/02/20 02:07:46;;;;;;;3.42;1.27;;;;;;;5.05;77.35;97835.44;4853019;29;20116;-76
2022/02/20 02:10:11;;;;;;;5.53;1.70;;;;;;;4.99;77.19;97849.59;4848579;29;20034;-75
2022/02/20 02:12:38;;;;;;;2.85;1.48;;;;;;;5.05;77.77;97838.06;4851516;29;20060;-76
2022/02/20 02:15:07;;;;;;;3.20;1.15;;;;;;;5.00;77.42;97838.00;4853356;29;20060;-75
2022/02/20 02:17:32;;;;;;;2.13;1.40;;;;;;;5.05;77.23;97856.59;4843150;29;20037;-77
2022/02/20 02:19:58;;;;;;;1.95;1.17;;;;;;;5.07;77.55;97851.84;4848573;29;20763;-76
2022/02/20 02:22:26;;;;;;;4.35;1.33;;;;;;;5.08;77.60;97867.50;4852993;29;20086;-75
2022/02/20 02:24:54;;;;;;;3.05;1.30;;;;;;;5.11;77.22;97871.53;4843025;29;20526;-76
2022/02/20 02:27:19;;;;;;;2.72;1.10;;;;;;;5.09;77.67;97866.44;4849669;29;20042;-75
2022/02/20 02:29:47;;;;;;;6.07;1.38;;;;;;;5.09;77.82;97871.75;4848495;29;20034;-77
2022/02/20 02:32:13;;;;;;;3.10;1.38;;;;;;;5.12;77.32;97875.75;4851912;29;20065;-77
2022/02/20 02:34:40;;;;;;;6.20;1.58;;;;;;;5.12;77.93;97884.50;4849496;29;20537;-77
2022/02/20 02:37:06;;;;;;;1.23;1.10;;;;;;;5.07;77.37;97892.34;4849742;29;20029;-75
2022/02/20 02:39:32;;;;;;;3.92;1.85;;;;;;;5.14;77.81;97886.91;4845993;29;20514;-76
2022/02/20 02:41:59;;;;;;;3.50;1.73;;;;;;;5.15;77.15;97899.09;4844610;29;20065;-75
2022/02/20 02:44:24;;;;;;;3.83;1.60;;;;;;;5.17;77.21;97904.94;4852363;29;20074;-76
2022/02/20 02:46:49;;;;;;;2.42;1.50;;;;;;;5.15;77.21;97902.56;4850204;29;20029;-76
2022/02/20 02:49:15;;;;;;;4.22;1.92;;;;;;;5.14;77.66;97902.78;4848562;29;20090;-76
2022/02/20 02:51:40;;;;;;;2.92;1.88;;;;;;;5.10;77.45;97913.03;4857388;29;20048;-75
2022/02/20 02:54:11;;;;;;;4.90;2.20;;;;;;;5.15;77.29;97914.97;4847337;29;20488;-76
2022/02/20 02:56:39;;;;;;;4.15;2.70;;;;;;;5.15;77.94;97925.53;4849895;29;20036;-75
2022/02/20 02:59:05;;;;;;;3.88;2.70;;;;;;;5.14;77.77;97930.03;4845417;29;20037;-74
2022/02/20 03:01:31;;;;;;;4.60;3.00;;;;;;;5.17;77.73;97926.91;4847742;29;20041;-75
2022/02/20 03:03:56;;;;;;;8.45;3.33;;;;;;;5.13;77.42;97922.34;4849750;29;20037;-75
2022/02/20 03:06:23;;;;;;;5.57;3.17;;;;;;;5.16;77.33;97935.88;4852514;29;20372;-75
2022/02/20 03:08:49;;;;;;;12.52;4.63;;;;;;;5.18;77.45;97936.44;4852896;29;20034;-75
2022/02/20 03:11:15;;;;;;;8.40;3.35;;;;;;;5.17;77.53;97949.91;4853397;29;20039;-75
2022/02/20 03:13:42;;;;;;;7.15;3.42;;;;;;;5.17;77.77;97956.03;4853723;29;20036;-75
2022/02/20 03:16:07;;;;;;;5.00;3.40;;;;;;;5.21;77.37;97961.63;4850924;29;20042;-75
2022/02/20 03:18:32;;;;;;;8.18;3.95;;;;;;;5.22;77.78;97968.53;4857540;29;20094;-75
2022/02/20 03:20:59;;;;;;;4.97;3.42;;;;;;;5.13;77.11;97964.66;4852348;29;20045;-75
2022/02/20 03:23:25;;;;;;;5.38;3.22;;;;;;;5.21;77.68;97980.94;4848924;29;20041;-76
2022/02/20 03:25:51;;;;;;;10.27;3.97;;;;;;;5.21;77.48;97983.59;4849131;29;20149;-76
2022/02/20 03:28:17;;;;;;;8.20;3.72;;;;;;;5.20;77.13;97995.22;4853251;29;20037;-76
2022/02/20 03:30:42;;;;;;;4.75;3.03;;;;;;;5.22;77.38;97995.00;4845791;29;20042;-75
2022/02/20 03:33:08;;;;;;;7.63;3.40;;;;;;;5.22;76.96;97995.00;4855176;29;20026;-75
2022/02/20 03:35:34;;;;;;;6.68;3.38;;;;;;;5.17;76.36;97986.94;4843410;29;20065;-76
2022/02/20 03:37:59;;;;;;;4.50;3.47;;;;;;;5.20;76.63;98003.13;4852803;29;20071;-77
2022/02/20 03:40:25;;;;;;;6.18;3.88;;;;;;;5.24;76.67;98008.78;4851348;29;20616;-75
2022/02/20 03:42:50;;;;;;;9.38;3.70;;;;;;;5.19;76.80;98013.97;4853254;29;20092;-75
2022/02/20 03:45:16;;;;;;;6.07;3.13;;;;;;;5.20;76.95;98018.19;4852870;29;20036;-74
2022/02/20 03:47:41;;;;;;;8.45;3.65;;;;;;;5.21;76.46;98030.41;4843515;29;20037;-77
2022/02/20 03:50:07;;;;;;;8.15;3.17;;;;;;;5.22;76.59;98024.09;4848956;29;20125;-76
2022/02/20 03:52:33;;;;;;;5.85;3.13;;;;;;;5.22;76.57;98027.50;4855132;29;20041;-75
2022/02/20 03:54:58;;;;;;;5.20;2.97;;;;;;;5.23;76.26;98045.00;4844787;29;20014;-75
2022/02/20 03:57:24;;;;;;;7.53;3.75;;;;;;;5.21;76.67;98030.41;4867766;29;20479;-75
2022/02/20 03:59:49;;;;;;;7.78;2.78;;;;;;;5.20;76.04;98071.91;4858106;29;20042;-76
2022/02/20 04:02:14;;;;;;;8.13;3.08;;;;;;;5.18;76.13;98058.13;4854671;29;20547;-75
2022/02/20 04:04:40;;;;;;;10.52;3.58;;;;;;;5.18;76.13;98068.69;4856075;29;20121;-76
2022/02/20 04:07:05;;;;;;;10.40;3.35;;;;;;;5.18;75.85;98074.00;4854594;29;20056;-75
2022/02/20 04:09:30;;;;;;;9.60;2.78;;;;;;;5.15;75.78;98092.19;4852223;29;20065;-75
2022/02/20 04:11:56;;;;;;;8.27;3.58;;;;;;;5.18;76.07;98083.75;4843178;29;20498;-75
2022/02/20 04:14:21;;;;;;;8.50;2.95;;;;;;;5.15;75.89;98081.59;4858913;29;20041;-75
2022/02/20 04:16:46;;;;;;;5.43;2.80;;;;;;;5.18;75.95;98099.63;4854721;29;20092;-76
2022/02/20 04:19:12;;;;;;;11.43;3.33;;;;;;;5.20;75.54;98103.66;4868604;29;20046;-76
2022/02/20 04:21:37;;;;;;;6.93;3.03;;;;;;;5.18;75.38;98094.34;4843179;29;20040;-76
2022/02/20 04:24:02;;;;;;;6.00;3.13;;;;;;;5.19;75.40;98104.72;4850206;29;20062;-76
2022/02/20 04:26:28;;;;;;;12.05;3.33;;;;;;;5.18;75.76;98112.84;4857633;29;20075;-74
2022/02/20 04:28:53;;;;;;;8.80;3.45;;;;;;;5.19;75.36;98109.19;4851738;29;20048;-74
2022/02/20 04:31:19;;;;;;;8.07;3.15;;;;;;;5.11;75.37;98115.63;4855157;29;20057;-74
2022/02/20 04:33:45;;;;;;;8.95;3.67;;;;;;;5.17;75.76;98133.22;4866300;29;20037;-75
2022/02/20 04:36:11;;;;;;;7.15;3.22;;;;;;;5.16;75.73;98128.16;4851419;29;20033;-75
2022/02/20 04:38:36;;;;;;;6.78;4.00;;;;;;;5.18;75.62;98131.38;4850311;29;20085;-75
2022/02/20 04:41:02;;;;;;;7.80;3.95;;;;;;;5.21;75.94;98157.38;4854297;29;20049;-75
2022/02/20 04:43:27;;;;;;;10.50;3.88;;;;;;;5.22;75.82;98148.41;4846529;29;20037;-75
2022/02/20 04:45:52;;;;;;;9.25;4.75;;;;;;;5.21;75.20;98154.72;4855491;29;20116;-75
2022/02/20 04:48:18;;;;;;;8.07;4.35;;;;;;;5.20;75.68;98166.34;4852517;29;20041;-76
2022/02/20 04:50:44;;;;;;;5.15;3.78;;;;;;;5.18;75.12;98174.50;4855679;29;20116;-76
2022/02/20 04:53:10;;;;;;;6.38;3.97;;;;;;;5.20;75.68;98177.72;4855430;29;20042;-77
2022/02/20 04:55:35;;;;;;;10.63;4.30;;;;;;;5.16;75.90;98181.06;4853584;29;20038;-77
2022/02/20 04:58:01;;;;;;;8.30;4.00;;;;;;;5.17;75.81;98172.09;4850994;29;20033;-78
2022/02/20 05:00:27;;;;;;;6.85;4.00;;;;;;;5.20;75.36;98187.50;4845348;29;20089;-76
2022/02/20 05:02:52;;;;;;;5.68;4.30;;;;;;;5.17;75.39;98194.06;4848792;29;20056;-75
2022/02/20 05:05:18;;;;;;;5.40;3.60;;;;;;;5.16;75.24;98194.28;4850309;29;20073;-74
2022/02/20 05:07:43;;;;;;;9.00;5.18;;;;;;;5.19;74.67;98193.84;4852316;29;20399;-75
2022/02/20 05:10:08;;;;;;;6.53;3.10;;;;;;;5.18;75.20;98181.63;4857002;29;20041;-75
2022/02/20 05:12:34;;;;;;;7.03;3.90;;;;;;;5.16;74.86;98189.81;4847303;29;20034;-75
2022/02/20 05:14:59;;;;;;;4.93;3.67;;;;;;;5.15;74.09;98206.72;4849062;29;20551;-75
2022/02/20 05:17:24;;;;;;;9.65;3.75;;;;;;;5.14;74.79;98193.72;4854147;29;20033;-74
2022/02/20 05:19:49;;;;;;;6.30;3.35;;;;;;;5.09;74.45;98183.00;4866045;29;20131;-75
2022/02/20 05:22:15;;;;;;;4.57;3.25;;;;;;;5.12;73.98;98219.59;4857873;29;20048;-75
2022/02/20 05:24:40;;;;;;;4.50;3.95;;;;;;;5.13;74.04;98216.69;4860277;29;20026;-74
2022/02/20 05:27:06;;;;;;;4.25;3.47;;;;;;;5.09;74.01;98212.91;4852881;29;20120;-74
2022/02/20 05:29:31;;;;;;;9.55;4.32;;;;;;;5.11;75.03;98205.53;4868850;29;20038;-75
2022/02/20 05:31:56;;;;;;;8.82;4.18;;;;;;;5.12;74.19;98203.72;4847947;29;20041;-76
2022/02/20 05:34:21;;;;;;;3.95;3.22;;;;;;;5.11;74.28;98197.63;4849631;29;20086;-76
2022/02/20 05:36:47;;;;;;;4.75;3.90;;;;;;;5.09;74.47;98207.63;4863377;29;20036;-76
2022/02/20 05:39:12;;;;;;;4.68;3.55;;;;;;;5.12;74.29;98216.94;4859004;29;20062;-76
2022/02/20 05:41:38;;;;;;;4.68;3.47;;;;;;;5.07;73.91;98208.88;4849848;29;20038;-76
2022/02/20 05:44:03;;;;;;;8.65;4.05;;;;;;;5.04;74.37;98212.00;4849101;29;20052;-75
2022/02/20 05:46:29;;;;;;;7.78;3.78;;;;;;;5.10;74.22;98226.94;4847186;29;20094;-76
2022/02/20 05:48:54;;;;;;;7.00;3.38;;;;;;;5.10;74.87;98235.69;4847778;29;20037;-76
2022/02/20 05:51:19;;;;;;;4.45;4.05;;;;;;;5.09;74.36;98234.06;4847301;29;20034;-76
2022/02/20 05:53:45;;;;;;;7.63;4.28;;;;;;;5.10;74.30;98248.09;4851686;29;20436;-75
2022/02/20 05:56:10;;;;;;;4.28;3.92;;;;;;;5.04;75.04;98233.97;4846484;29;20038;-76
2022/02/20 05:58:36;;;;;;;4.65;4.18;;;;;;;5.10;74.89;98234.88;4856670;29;20044;-75
2022/02/20 06:01:01;;;;;;;8.27;4.00;;;;;;;5.12;75.04;98256.63;4855275;29;20041;-75
2022/02/20 06:03:26;;;;;;;5.28;4.35;;;;;;;5.10;74.79;98240.97;4856701;29;20033;-77
2022/02/20 06:05:52;;;;;;;9.52;4.28;;;;;;;5.11;75.07;98244.44;4849765;29;20357;-76
2022/02/20 06:08:18;;;;;;;6.38;4.65;;;;;;;5.09;74.87;98239.34;4846596;29;20452;-77
2022/02/20 06:10:43;;;;;;;9.32;4.30;;;;;;;5.09;74.92;98247.28;4851384;29;20093;-75
2022/02/20 06:13:08;;;;;;;6.43;4.68;;;;;;;5.09;74.95;98255.22;4844079;29;20034;-76
2022/02/20 06:15:35;;;;;;;7.05;5.00;;;;;;;5.04;75.06;98249.03;4844516;29;20385;-76
2022/02/20 06:18:01;;;;;;;7.47;5.30;;;;;;;5.08;74.75;98263.41;4846426;29;20578;-75
2022/02/20 06:20:26;;;;;;;8.75;5.03;;;;;;;5.07;75.06;98259.94;4850859;29;20107;-76
2022/02/20 06:22:53;;;;;;;11.88;5.50;;;;;;;5.06;74.69;98255.69;4867763;29;20415;-74
2022/02/20 06:25:18;;;;;;;11.95;5.28;;;;;;;5.08;75.18;98252.81;4842440;29;20046;-76
2022/02/20 06:27:44;;;;;;;14.13;5.43;;;;;;;5.07;74.88;98246.72;4850200;29;20112;-75
2022/02/20 06:30:09;;;;;;;6.60;5.88;;;;;;;5.06;75.52;98239.00;4845346;29;20038;-75
2022/02/20 06:32:35;;;;;;;8.63;5.72;;;;;;;5.07;75.10;98267.88;4844366;29;20033;-76
2022/02/20 06:35:00;;;;;;;7.55;5.65;;;;;;;5.04;74.71;98251.66;4853545;29;20520;-75
2022/02/20 06:37:25;;;;;;;8.80;6.32;;;;;;;5.04;74.70;98255.13;4845620;29;20686;-76
2022/02/20 06:39:51;;;;;;;9.25;6.45;;;;;;;5.04;74.97;98254.31;4849218;29;20120;-75
2022/02/20 06:42:18;;;;;;;9.07;6.25;;;;;;;5.07;74.90;98262.59;4845934;29;20399;-75
2022/02/20 06:44:43;;;;;;;7.25;5.32;;;;;;;5.09;74.46;98270.28;4853070;29;20034;-75
2022/02/20 06:47:08;;;;;;;7.65;4.82;;;;;;;5.08;74.58;98268.69;4860916;29;20036;-75
2022/02/20 06:49:34;;;;;;;5.90;5.03;;;;;;;5.01;74.06;98252.09;4852704;29;20044;-76
2022/02/20 06:51:59;;;;;;;8.23;4.97;;;;;;;5.03;74.48;98266.72;4835902;29;20034;-75
2022/02/20 06:54:27;;;;;;;6.30;4.45;;;;;;;5.04;74.43;98262.25;4846387;29;20041;-75
2022/02/20 06:56:57;;;;;;;7.68;5.55;;;;;;;5.03;74.15;98265.91;4846954;29;20129;-76
2022/02/20 06:59:25;;;;;;;6.03;4.80;;;;;;;4.94;74.16;98248.75;4850097;29;20073;-77
2022/02/20 07:01:51;;;;;;;5.25;4.45;;;;;;;5.01;74.05;98268.78;4856218;29;20082;-75
2022/02/20 07:04:16;;;;;;;7.95;4.75;;;;;;;5.00;74.20;98266.38;4852191;29;20041;-77
2022/02/20 07:06:46;;;;;;;5.72;3.38;;;;;;;5.03;73.74;98273.84;4844267;29;20121;-76
2022/02/20 07:09:12;;;;;;;5.20;4.10;;;;;;;5.03;73.79;98269.38;4853572;29;20042;-75
2022/02/20 07:11:38;;;;;;;4.47;3.80;;;;;;;5.00;74.18;98267.16;4849319;29;20077;-75
2022/02/20 07:14:04;;;;;;;5.28;3.08;;;;;;;5.01;74.33;98257.41;4851542;29;20387;-75
2022/02/20 07:16:30;;;;;;;4.53;2.80;;;;;;;5.01;74.12;98257.41;4854698;29;20034;-76
2022/02/20 07:18:55;;;;;;;7.85;3.47;;;;;;;4.99;74.22;98265.56;4850584;29;20037;-74
2022/02/20 07:21:24;;;;;;;4.10;3.20;;;;;;;5.01;74.60;98252.91;4841291;29;20353;-74
2022/02/20 07:23:50;;;;;;;4.25;3.13;;;;;;;5.01;74.16;98246.81;4856230;29;20121;-75
2022/02/20 07:26:16;;;;;;;2.60;2.40;;;;;;;5.05;74.39;98259.38;4851386;29;20082;-75
2022/02/20 07:28:41;;;;;;;5.47;2.70;;;;;;;5.05;74.31;98247.97;4847186;29;20515;-75
2022/02/20 07:31:06;;;;;;;4.57;3.00;;;;;;;5.04;74.39;98249.84;4847033;29;20244;-75
2022/02/20 07:33:32;;;;;;;7.85;2.80;;;;;;;5.06;74.47;98241.66;4849585;29;20037;-74
2022/02/20 07:35:57;;;;;;;5.47;2.50;;;;;;;5.08;74.08;98229.00;4844318;29;20062;-75
2022/02/20 07:38:22;;;;;;;3.22;2.78;;;;;;;5.03;74.87;98218.31;4852323;29;20030;-75
2022/02/20 07:40:47;;;;;;;2.90;2.17;;;;;;;5.11;74.32;98220.63;4850071;29;20391;-74
2022/02/20 07:43:13;;;;;;;6.03;2.60;;;;;;;5.10;73.94;98219.00;4853207;29;20048;-74
2022/02/20 07:45:38;;;;;;;4.30;2.97;;;;;;;5.10;73.81;98216.38;4851303;29;20040;-75
2022/02/20 07:48:04;;;;;;;6.72;2.47;;;;;;;5.11;74.63;98218.78;4863576;29;20075;-74
2022/02/20 07:50:31;;;;;;;8.18;4.07;;;;;;;5.14;74.56;98222.81;4855739;29;20129;-75
2022/02/20 07:52:57;;;;;;;5.07;2.67;;;;;;;5.14;74.91;98215.69;4850873;29;20544;-76
2022/02/20 07:55:23;;;;;;;8.43;2.67;;;;;;;5.16;74.31;98212.81;4851065;29;20368;-78
2022/02/20 07:57:49;;;;;;;3.47;2.58;;;;;;;5.10;73.88;98197.84;4854292;29;20033;-77
2022/02/20 08:00:17;;;;;;;4.38;2.70;;;;;;;5.16;74.10;98210.16;4861184;29;20400;-77
2022/02/20 08:02:43;;;;;;;4.43;2.95;;;;;;;5.20;74.02;98204.19;4851365;29;20038;-76
2022/02/20 08:05:09;;;;;;;5.65;2.75;;;;;;;5.13;73.86;98184.97;4851989;29;20047;-76
2022/02/20 08:07:34;;;;;;;4.93;2.17;;;;;;;5.17;74.85;98183.50;4855464;29;20082;-77
2022/02/20 08:10:00;;;;;;;7.55;3.03;;;;;;;5.20;74.18;98179.56;4851515;29;20025;-76
2022/02/20 08:12:25;;;;;;;6.45;3.05;;;;;;;5.26;74.50;98181.31;4853273;29;20029;-77
2022/02/20 08:14:50;;;;;;;8.90;3.05;;;;;;;5.25;74.74;98169.91;4854824;29;20033;-78
2022/02/20 08:17:16;;;;;;;5.60;2.85;;;;;;;5.28;75.13;98163.34;4852281;29;20065;-77
2022/02/20 08:19:41;;;;;;;13.15;3.25;;;;;;;5.29;74.91;98154.38;4858395;29;20037;-75
2022/02/20 08:22:06;;;;;;;22.63;4.13;;;;;;;5.29;75.03;98149.06;4866313;29;20578;-76
2022/02/20 08:24:31;;;;;;;8.20;4.03;;;;;;;5.31;76.10;98144.34;4843198;29;20038;-75
2022/02/20 08:26:57;;;;;;;8.32;4.05;;;;;;;5.29;75.65;98141.94;4850583;29;20509;-75
2022/02/20 08:29:22;;;;;;;15.05;4.95;;;;;;;5.32;76.14;98138.03;4850846;29;20038;-75
2022/02/20 08:31:48;;;;;;;8.75;4.30;;;;;;;5.38;75.83;98136.28;4855153;29;20499;-74
2022/02/20 08:34:15;;;;;;;6.70;4.00;;;;;;;5.36;76.08;98115.38;4868265;29;20034;-76
2022/02/20 08:36:41;;;;;;;10.68;5.00;;;;;;;5.37;76.84;98114.34;4861181;29;20048;-76
2022/02/20 08:39:06;;;;;;;15.77;5.15;;;;;;;5.43;76.78;98116.06;4868336;29;20743;-76
2022/02/20 08:41:32;;;;;;;10.40;4.88;;;;;;;5.46;76.78;98120.09;4851642;29;20034;-75
2022/02/20 08:43:57;;;;;;;8.25;5.88;;;;;;;5.43;77.16;98110.75;4847671;29;20034;-76
2022/02/20 08:46:22;;;;;;;8.32;4.47;;;;;;;5.43;78.21;98107.31;4847963;29;20158;-77
2022/02/20 08:48:48;;;;;;;15.55;4.97;;;;;;;5.46;78.05;98099.69;4842224;29;20041;-75
2022/02/20 08:51:13;;;;;;;15.20;5.15;;;;;;;5.46;78.18;98096.25;4856975;29;20114;-75
2022/02/20 08:53:38;;;;;;;9.88;5.05;;;;;;;5.47;78.37;98087.28;4849870;29;20042;-75
2022/02/20 08:56:06;;;;;;;9.05;5.70;;;;;;;5.41;77.89;98078.44;4852926;29;20033;-75
2022/02/20 08:58:32;;;;;;;7.82;4.95;;;;;;;5.49;77.94;98072.78;4851298;29;20112;-75
2022/02/20 09:00:58;;;;;;;11.18;5.63;;;;;;;5.52;78.00;98068.84;4856192;29;20125;-74
2022/02/20 09:03:23;;;;;;;12.90;4.25;;;;;;;5.53;78.47;98059.84;4850356;29;21708;-75
2022/02/20 09:05:48;;;;;;;16.92;4.38;;;;;;;5.49;78.30;98072.78;4852614;29;20038;-74
2022/02/20 09:08:13;;;;;;;8.15;4.85;;;;;;;5.53;78.83;98057.22;4850612;29;20094;-75
2022/02/20 09:10:40;;;;;;;13.65;4.30;;;;;;;5.49;78.66;98046.31;4854024;29;20484;-74
2022/02/20 09:13:06;;;;;;;10.15;4.30;;;;;;;5.51;79.70;98038.94;4848137;29;20504;-75
2022/02/20 09:15:31;;;;;;;12.65;4.13;;;;;;;5.49;80.57;98042.84;4851701;29;20098;-75
2022/02/20 09:17:56;;;;;;;11.63;3.05;;;;;;;5.51;81.88;98030.19;4857801;29;20120;-76
2022/02/20 09:20:22;;;;;;;10.05;3.72;;;;;;;5.43;82.31;98022.63;4847792;29;20048;-75
2022/02/20 09:22:47;;;;;;;9.43;3.08;;;;;;;5.47;83.38;98023.75;4847269;29;20044;-74
2022/02/20 09:25:13;;;;;;;10.77;2.78;;;;;;;5.52;83.45;98021.22;4852259;29;20033;-75
2022/02/20 09:27:41;;;;;;;12.50;3.30;;;;;;;5.54;83.75;98014.66;4854701;29;20094;-76
2022/02/20 09:30:07;;;;;;;19.35;4.43;;;;;;;5.61;83.56;98017.97;4856800;29;20076;-76
2022/02/20 09:32:32;;;;;;;7.28;2.80;;;;;;;5.55;83.58;98000.38;4851654;29;20075;-75
2022/02/20 09:34:58;;;;;;;4.72;2.35;;;;;;;5.55;83.60;97999.59;4851574;29;20448;-75
2022/02/20 09:37:23;;;;;;;9.40;3.55;;;;;;;5.61;84.47;97993.34;4853120;29;20063;-76
2022/02/20 09:39:48;;;;;;;8.10;2.75;;;;;;;5.60;84.39;97989.88;4846946;29;20030;-76
2022/02/20 09:42:15;;;;;;;11.43;2.35;;;;;;;5.66;83.88;98023.34;4855948;29;20479;-76
2022/02/20 09:44:43;;;;;;;6.75;2.33;;;;;;;5.67;84.39;97982.59;4857143;29;20057;-74
2022/02/20 09:47:10;;;;;;;7.82;1.92;;;;;;;5.67;84.27;97971.19;4848823;29;20057;-73
2022/02/20 09:49:37;;;;;;;15.18;2.92;;;;;;;5.75;85.41;97982.19;4846858;29;20061;-75
2022/02/20 09:52:03;;;;;;;9.90;4.88;;;;;;;5.80;85.11;97990.25;4852046;29;20066;-74
2022/02/20 09:54:29;;;;;;;6.78;2.33;;;;;;;5.88;84.88;97965.22;4841026;29;20436;-74
2022/02/20 09:56:54;;;;;;;8.98;2.50;;;;;;;5.98;85.08;97968.06;4847204;23;20503;-75
2022/02/20 09:59:20;;;;;;;10.32;2.13;;;;;;;6.02;85.53;97963.88;4847016;29;20038;-75
2022/02/20 10:02:04;;;;;;;5.78;2.78;;;;;;;6.06;85.11;97954.41;4832694;29;20041;-75
2022/02/20 10:04:40;;;;;;;14.13;4.43;;;;;;;6.19;84.45;97959.38;4836354;29;20034;-75
2022/02/20 10:07:06;;;;;;;13.82;5.30;;;;;;;6.24;84.52;97942.75;4837484;29;20034;-75
2022/02/20 10:09:38;;;;;;;20.55;6.28;;;;;;;6.13;84.82;97917.97;4839327;29;20044;-75
2022/02/20 10:12:27;;;;;;;12.27;6.22;;;;;;;5.95;84.39;97879.31;4837032;29;20436;-75
2022/02/20 10:14:54;;;;;;;19.08;5.22;;;;;;;6.36;84.90;97944.25;4836956;29;20045;-75
2022/02/20 10:17:21;;;;;;;12.50;6.35;;;;;;;6.39;84.36;97940.34;4838326;29;20075;-74
2022/02/20 10:20:21;;;;;;;9.63;5.78;;;;;;;6.38;83.99;97920.16;4838448;29;20026;-75
2022/02/20 10:22:46;;;;;;;11.40;5.60;;;;;;;6.31;84.11;97903.66;4837663;29;20068;-77
2022/02/20 10:25:13;;;;;;;12.20;4.70;;;;;;;6.30;84.42;97899.38;4838161;29;20070;-76
2022/02/20 10:27:53;;;;;;;10.75;5.10;;;;;;;6.43;83.92;97915.75;4838505;29;20068;-76
2022/02/20 10:30:22;;;;;;;9.48;4.63;;;;;;;6.45;84.27;97907.53;4836613;29;20041;-76
2022/02/20 10:33:16;;;;;;;14.00;5.72;;;;;;;6.36;83.79;97885.16;4851837;29;20376;-76
2022/02/20 10:35:50;;;;;;;10.30;4.82;;;;;;;6.44;83.92;97911.25;4838536;29;20084;-75
2022/02/20 10:38:20;;;;;;;9.43;4.75;;;;;;;6.42;84.36;97889.50;4838188;29;20038;-74
2022/02/20 10:40:48;;;;;;;8.98;3.70;;;;;;;6.48;84.43;97901.75;4839478;29;20065;-75
2022/02/20 10:43:40;;;;;;;5.63;2.92;;;;;;;6.49;84.81;97898.84;4839304;29;20065;-76
2022/02/20 10:46:10;;;;;;;3.88;3.03;;;;;;;6.53;84.03;97891.25;4833596;29;20299;-75
2022/02/20 10:48:46;;;;;;;5.05;2.60;;;;;;;6.57;84.48;97905.59;4842823;29;20046;-75
2022/02/20 10:51:13;;;;;;;5.47;2.30;;;;;;;6.51;84.92;97883.50;4843731;29;20391;-76
2022/02/20 10:53:38;;;;;;;6.70;2.40;;;;;;;6.55;84.19;97866.06;4840422;29;20030;-75
2022/02/20 10:56:04;;;;;;;3.58;2.35;;;;;;;6.62;84.45;97884.44;4832201;29;20058;-75
2022/02/20 10:58:33;;;;;;;4.85;2.13;;;;;;;6.64;84.14;97883.16;4841975;29;20029;-75
2022/02/20 11:01:01;;;;;;;2.53;1.80;;;;;;;6.67;84.59;97898.56;4844792;29;20038;-75
2022/02/20 11:03:28;;;;;;;2.92;1.90;;;;;;;6.47;84.30;97839.19;4840017;29;20455;-74
2022/02/20 11:05:55;;;;;;;4.50;1.50;;;;;;;6.67;84.42;97892.47;4840300;29;20041;-74
2022/02/20 11:08:22;;;;;;;3.75;2.45;;;;;;;6.72;84.21;97868.66;4834687;29;20075;-75
2022/02/20 11:10:49;;;;;;;4.70;2.17;;;;;;;6.72;84.16;97868.66;4831987;29;20793;-75
2022/02/20 11:13:15;;;;;;;2.75;1.98;;;;;;;6.74;84.51;97864.72;4833359;29;20037;-74
2022/02/20 11:15:43;;;;;;;3.80;1.80;;;;;;;6.79;84.57;97871.94;4833282;29;20038;-75
2022/02/20 11:18:11;;;;;;;2.97;1.58;;;;;;;6.76;84.16;97853.84;4836389;29;20121;-75
2022/02/20 11:20:40;;;;;;;3.83;1.45;;;;;;;6.81;84.89;97856.56;4838527;29;20034;-75
2022/02/20 11:23:06;;;;;;;3.20;1.42;;;;;;;6.83;84.97;97854.47;4829553;29;20033;-75
2022/02/20 11:25:34;;;;;;;5.03;1.63;;;;;;;6.86;85.12;97853.19;4837321;29;20256;-75
2022/02/20 11:28:01;;;;;;;4.88;1.70;;;;;;;6.85;85.17;97833.81;4839591;29;20033;-75
2022/02/20 11:30:27;;;;;;;1.60;1.20;;;;;;;6.92;84.44;97844.22;4838530;29;20491;-75
2022/02/20 11:32:57;;;;;;;1.42;1.33;;;;;;;6.72;84.98;97813.78;4833306;29;20521;-75
2022/02/20 11:35:24;;;;;;;3.83;1.75;;;;;;;6.94;84.98;97850.06;4833703;29;20460;-75
2022/02/20 11:38:26;;;;;;;3.47;1.35;;;;;;;6.96;85.07;97846.13;4835436;29;20034;-75